SWA3176 TNCM-KMCO
Flight info
| Callsign | SWA3176 |
|---|---|
| Flight time | N/A |
| Altitude | 34000 |
| Route | PJM B520 STT RTE6 SJU DCT ACONY Y280 SUMAC DCT OCTAL MUNGI1 |
| Aircraft | B737/M-SADE2E3GIJ4RWZ/LB1D1 |
Departure
| Time | 2026-05-03 21:38 |
|---|---|
| Airport | Princess Juliana International Airport (TNCM) |
Arrival
| Time | N/A |
|---|---|
| Airport | Orlando International Airport (KMCO) |
| Time | Latitude | Longitude | Altitude | Speed | Heading |
|---|---|---|---|---|---|
| 2026-05-03 21:09 | 18.04225 | -63.11581 | 28 ft | 0 kts | 321° |
| 2026-05-03 21:32 | 18.04212 | -63.11570 | 28 ft | 4 kts | 317° |
| 2026-05-03 21:33 | 18.04194 | -63.11549 | 28 ft | 4 kts | 302° |
| 2026-05-03 21:33 | 18.04186 | -63.11525 | 27 ft | 4 kts | 252° |
| 2026-05-03 21:33 | 18.04189 | -63.11517 | 27 ft | 1 kts | 231° |
| 2026-05-03 21:36 | 18.04188 | -63.11519 | 27 ft | 1 kts | 230° |
| 2026-05-03 21:36 | 18.04175 | -63.11535 | 27 ft | 5 kts | 231° |
| 2026-05-03 21:36 | 18.04147 | -63.11572 | 27 ft | 9 kts | 232° |
| 2026-05-03 21:36 | 18.04091 | -63.11647 | 27 ft | 17 kts | 232° |
| 2026-05-03 21:37 | 18.04051 | -63.11782 | 26 ft | 22 kts | 261° |
| 2026-05-03 21:37 | 18.04007 | -63.11934 | 27 ft | 22 kts | 233° |
| 2026-05-03 21:37 | 18.03946 | -63.11902 | 27 ft | 21 kts | 76° |
| 2026-05-03 21:37 | 18.04011 | -63.11453 | 26 ft | 105 kts | 81° |
| 2026-05-03 21:38 | 18.04152 | -63.10441 | 185 ft | 163 kts | 82° |
| 2026-05-03 21:38 | 18.04244 | -63.09291 | 1327 ft | 155 kts | 102° |
| 2026-05-03 21:38 | 18.03624 | -63.08312 | 2091 ft | 183 kts | 146° |
| 2026-05-03 21:38 | 18.02323 | -63.07881 | 2657 ft | 203 kts | 163° |
| 2026-05-03 21:39 | 18.00926 | -63.07576 | 3432 ft | 205 kts | 165° |
| 2026-05-03 21:39 | 17.99512 | -63.07269 | 4121 ft | 211 kts | 165° |
| 2026-05-03 21:39 | 17.97988 | -63.06938 | 4416 ft | 238 kts | 165° |
| 2026-05-03 21:39 | 17.96279 | -63.06557 | 4776 ft | 259 kts | 165° |
| 2026-05-03 21:40 | 17.94488 | -63.06158 | 5446 ft | 267 kts | 165° |
| 2026-05-03 21:40 | 17.92654 | -63.05749 | 6248 ft | 270 kts | 166° |
| 2026-05-03 21:40 | 17.90774 | -63.05755 | 6938 ft | 282 kts | 192° |
| 2026-05-03 21:40 | 17.89009 | -63.06671 | 7773 ft | 288 kts | 217° |
| 2026-05-03 21:41 | 17.87724 | -63.08303 | 8611 ft | 295 kts | 242° |
| 2026-05-03 21:41 | 17.87209 | -63.10388 | 9501 ft | 299 kts | 269° |
| 2026-05-03 21:41 | 17.87557 | -63.12523 | 10433 ft | 299 kts | 290° |
| 2026-05-03 21:41 | 17.88406 | -63.14582 | 10902 ft | 318 kts | 295° |
| 2026-05-03 21:42 | 17.89439 | -63.16740 | 11094 ft | 343 kts | 297° |
| 2026-05-03 21:42 | 17.90563 | -63.19006 | 11623 ft | 354 kts | 297° |
| 2026-05-03 21:42 | 17.91703 | -63.21317 | 12391 ft | 357 kts | 297° |
| 2026-05-03 21:42 | 17.92837 | -63.23645 | 13212 ft | 359 kts | 297° |
| 2026-05-03 21:43 | 17.93967 | -63.25996 | 13995 ft | 362 kts | 297° |
| 2026-05-03 21:43 | 17.95098 | -63.28370 | 14720 ft | 364 kts | 296° |
| 2026-05-03 21:43 | 17.96227 | -63.30755 | 15447 ft | 366 kts | 296° |
| 2026-05-03 21:43 | 17.97360 | -63.33157 | 16205 ft | 367 kts | 296° |
| 2026-05-03 21:44 | 17.98496 | -63.35571 | 16948 ft | 369 kts | 296° |
| 2026-05-03 21:44 | 17.99638 | -63.37998 | 17647 ft | 372 kts | 296° |
| 2026-05-03 21:44 | 18.00772 | -63.40410 | 18340 ft | 374 kts | 296° |
| 2026-05-03 21:44 | 18.01930 | -63.42875 | 18914 ft | 378 kts | 296° |
| 2026-05-03 21:45 | 18.03101 | -63.45367 | 19446 ft | 383 kts | 296° |
| 2026-05-03 21:45 | 18.04283 | -63.47890 | 19991 ft | 387 kts | 296° |
| 2026-05-03 21:45 | 18.05477 | -63.50431 | 20540 ft | 390 kts | 296° |
| 2026-05-03 21:45 | 18.06685 | -63.53007 | 21060 ft | 394 kts | 297° |
| 2026-05-03 21:46 | 18.07504 | -63.54756 | 21418 ft | 397 kts | 297° |
| 2026-05-03 21:46 | 18.08729 | -63.57369 | 21896 ft | 401 kts | 297° |
| 2026-05-03 21:46 | 18.09956 | -63.59984 | 22413 ft | 405 kts | 297° |
| 2026-05-03 21:46 | 18.11206 | -63.62650 | 22914 ft | 409 kts | 297° |
| 2026-05-03 21:47 | 18.12449 | -63.65353 | 23372 ft | 413 kts | 295° |
| 2026-05-03 21:47 | 18.13412 | -63.68227 | 23796 ft | 419 kts | 285° |
| 2026-05-03 21:47 | 18.13983 | -63.71246 | 24196 ft | 423 kts | 281° |
| 2026-05-03 21:47 | 18.14475 | -63.74304 | 24615 ft | 425 kts | 281° |
| 2026-05-03 21:48 | 18.14957 | -63.77383 | 25025 ft | 428 kts | 281° |
| 2026-05-03 21:48 | 18.15446 | -63.80474 | 25434 ft | 430 kts | 281° |
| 2026-05-03 21:48 | 18.15950 | -63.83584 | 25826 ft | 433 kts | 281° |
| 2026-05-03 21:48 | 18.16466 | -63.86717 | 26213 ft | 436 kts | 281° |
| 2026-05-03 21:49 | 18.16984 | -63.89826 | 26588 ft | 439 kts | 281° |
| 2026-05-03 21:49 | 18.17515 | -63.92995 | 26965 ft | 442 kts | 281° |
| 2026-05-03 21:49 | 18.18048 | -63.96186 | 27339 ft | 444 kts | 281° |
| 2026-05-03 21:49 | 18.18584 | -63.99393 | 27705 ft | 447 kts | 281° |
| 2026-05-03 21:50 | 18.19122 | -64.02618 | 28160 ft | 447 kts | 281° |
| 2026-05-03 21:50 | 18.19658 | -64.05836 | 28720 ft | 445 kts | 281° |
| 2026-05-03 21:50 | 18.20190 | -64.09032 | 29310 ft | 443 kts | 280° |
| 2026-05-03 21:50 | 18.20720 | -64.12219 | 29868 ft | 442 kts | 281° |
| 2026-05-03 21:51 | 18.21253 | -64.15399 | 30361 ft | 441 kts | 281° |
| 2026-05-03 21:51 | 18.21784 | -64.18571 | 30870 ft | 439 kts | 281° |
| 2026-05-03 21:51 | 18.22313 | -64.21726 | 31426 ft | 436 kts | 281° |
| 2026-05-03 21:51 | 18.22836 | -64.24851 | 32002 ft | 433 kts | 281° |
| 2026-05-03 21:52 | 18.23355 | -64.27957 | 32554 ft | 430 kts | 281° |
| 2026-05-03 21:52 | 18.23871 | -64.31049 | 33082 ft | 428 kts | 281° |
| 2026-05-03 21:52 | 18.24383 | -64.34124 | 33589 ft | 426 kts | 281° |
| 2026-05-03 21:52 | 18.24890 | -64.37181 | 34021 ft | 422 kts | 281° |
| 2026-05-03 21:53 | 18.25908 | -64.43294 | 34051 ft | 425 kts | 281° |
| 2026-05-03 21:53 | 18.26920 | -64.49385 | 34054 ft | 424 kts | 281° |
| 2026-05-03 21:54 | 18.27930 | -64.55488 | 34056 ft | 423 kts | 281° |
| 2026-05-03 21:54 | 18.28936 | -64.61575 | 34053 ft | 422 kts | 281° |
| 2026-05-03 21:55 | 18.29938 | -64.67661 | 34054 ft | 422 kts | 280° |
| 2026-05-03 21:55 | 18.30933 | -64.73750 | 34046 ft | 423 kts | 280° |
| 2026-05-03 21:56 | 18.31922 | -64.79822 | 34050 ft | 424 kts | 280° |
| 2026-05-03 21:56 | 18.32916 | -64.85948 | 34053 ft | 424 kts | 280° |
| 2026-05-03 21:57 | 18.33911 | -64.92077 | 34038 ft | 425 kts | 280° |
| 2026-05-03 21:57 | 18.34906 | -64.98210 | 34042 ft | 425 kts | 279° |
| 2026-05-03 21:58 | 18.34908 | -65.04407 | 34042 ft | 425 kts | 262° |
| 2026-05-03 21:58 | 18.33289 | -65.10396 | 34046 ft | 426 kts | 252° |
| 2026-05-03 21:59 | 18.31424 | -65.16269 | 34047 ft | 426 kts | 253° |
| 2026-05-03 21:59 | 18.29916 | -65.22276 | 34041 ft | 424 kts | 265° |
| 2026-05-03 22:00 | 18.30098 | -65.28446 | 34047 ft | 423 kts | 282° |
| 2026-05-03 22:00 | 18.31368 | -65.34493 | 34052 ft | 423 kts | 283° |
| 2026-05-03 22:01 | 18.32674 | -65.40527 | 34056 ft | 423 kts | 283° |
| 2026-05-03 22:01 | 18.33939 | -65.46592 | 34056 ft | 424 kts | 282° |
| 2026-05-03 22:02 | 18.35176 | -65.52617 | 34063 ft | 424 kts | 282° |
| 2026-05-03 22:02 | 18.36418 | -65.58686 | 34067 ft | 424 kts | 282° |
| 2026-05-03 22:03 | 18.37660 | -65.64759 | 34056 ft | 424 kts | 282° |
| 2026-05-03 22:03 | 18.38897 | -65.70833 | 34052 ft | 424 kts | 282° |